createdAt,value
2022-10-19T00:01:21.705Z,14.37
2022-10-19T00:03:53.187Z,14.25
2022-10-19T00:06:30.672Z,14.17
2022-10-19T00:09:03.779Z,14.25
2022-10-19T00:11:33.749Z,14.37
2022-10-19T00:14:03.474Z,14.37
2022-10-19T00:16:35.293Z,14.23
2022-10-19T00:19:06.629Z,14.28
2022-10-19T00:21:35.574Z,14.31
2022-10-19T00:24:04.152Z,14.38
2022-10-19T00:26:32.935Z,14.58
2022-10-19T00:29:01.566Z,14.31
2022-10-19T00:31:30.167Z,14.20
2022-10-19T00:33:59.160Z,14.15
2022-10-19T00:36:30.664Z,14.25
2022-10-19T00:39:00.260Z,13.98
2022-10-19T00:41:31.284Z,13.97
2022-10-19T00:44:11.622Z,14.13
2022-10-19T00:46:42.977Z,13.99
2022-10-19T00:49:15.448Z,14.01
2022-10-19T00:51:50.891Z,14.00
2022-10-19T00:54:20.209Z,13.90
2022-10-19T00:56:52.239Z,13.82
2022-10-19T00:59:23.368Z,13.68
2022-10-19T01:01:53.207Z,13.57
2022-10-19T01:04:23.471Z,13.78
2022-10-19T01:06:53.813Z,13.91
2022-10-19T01:09:22.393Z,13.93
2022-10-19T01:12:09.151Z,14.01
2022-10-19T01:14:46.693Z,14.13
2022-10-19T01:17:40.889Z,14.24
2022-10-19T01:20:28.103Z,14.16
2022-10-19T01:23:05.582Z,13.90
2022-10-19T01:25:58.018Z,13.93
2022-10-19T01:28:44.802Z,13.84
2022-10-19T01:31:45.257Z,13.87
2022-10-19T01:34:22.024Z,13.86
2022-10-19T01:37:09.488Z,13.54
2022-10-19T01:39:49.887Z,13.43
2022-10-19T01:42:29.829Z,13.33
2022-10-19T01:45:13.866Z,13.20
2022-10-19T01:48:07.800Z,13.11
2022-10-19T01:50:43.456Z,12.88
2022-10-19T01:53:13.262Z,12.95
2022-10-19T01:55:44.984Z,12.72
2022-10-19T01:58:18.581Z,12.78
2022-10-19T02:00:52.485Z,12.51
2022-10-19T02:03:23.247Z,12.61
2022-10-19T02:05:52.992Z,12.74
2022-10-19T02:08:37.858Z,12.82
2022-10-19T02:11:06.476Z,12.73
2022-10-19T02:13:37.420Z,12.88
2022-10-19T02:16:09.506Z,12.75
2022-10-19T02:18:42.413Z,12.86
2022-10-19T02:21:10.951Z,12.63
2022-10-19T02:23:39.486Z,12.75
2022-10-19T02:26:08.542Z,12.90
2022-10-19T02:28:37.564Z,12.96
2022-10-19T02:31:06.240Z,13.06
2022-10-19T02:33:34.755Z,13.13
2022-10-19T02:36:03.729Z,13.07
2022-10-19T02:38:32.277Z,13.08
2022-10-19T02:41:20.822Z,13.06
2022-10-19T02:44:00.968Z,13.06
2022-10-19T02:46:52.124Z,13.02
2022-10-19T02:49:21.429Z,12.93
2022-10-19T02:52:14.443Z,12.96
2022-10-19T02:54:44.729Z,12.93
2022-10-19T02:57:24.645Z,13.12
2022-10-19T02:59:53.089Z,13.14
2022-10-19T03:02:21.432Z,13.05
2022-10-19T03:04:49.829Z,12.97
2022-10-19T03:07:19.813Z,13.07
2022-10-19T03:09:48.615Z,13.07
2022-10-19T03:12:17.183Z,12.89
2022-10-19T03:14:45.466Z,12.99
2022-10-19T03:17:13.931Z,13.13
2022-10-19T03:19:42.287Z,13.13
2022-10-19T03:22:10.646Z,12.87
2022-10-19T03:24:39.027Z,12.76
2022-10-19T03:27:07.414Z,12.72
2022-10-19T03:29:35.867Z,12.76
2022-10-19T03:32:05.099Z,12.84
2022-10-19T03:34:33.511Z,12.65
2022-10-19T03:37:01.843Z,12.71
2022-10-19T03:39:30.316Z,12.79
2022-10-19T03:41:58.621Z,12.78
2022-10-19T03:44:27.074Z,12.75
2022-10-19T03:46:55.483Z,12.80
2022-10-19T03:49:24.606Z,12.70
2022-10-19T03:51:52.948Z,12.71
2022-10-19T03:54:23.712Z,12.66
2022-10-19T03:56:55.581Z,12.65
2022-10-19T03:59:24.287Z,12.64
2022-10-19T04:01:52.611Z,12.48
2022-10-19T04:04:20.991Z,12.77
2022-10-19T04:06:50.473Z,12.75
2022-10-19T04:09:20.791Z,12.51
2022-10-19T04:11:49.893Z,12.43
2022-10-19T04:14:31.651Z,12.32
2022-10-19T04:17:02.192Z,12.34
2022-10-19T04:19:31.214Z,12.26
2022-10-19T04:21:59.808Z,12.30
2022-10-19T04:24:28.808Z,12.47
2022-10-19T04:26:57.258Z,12.36
2022-10-19T04:29:29.549Z,12.34
2022-10-19T04:31:59.545Z,12.49
2022-10-19T04:34:27.951Z,12.43
2022-10-19T04:36:59.325Z,12.25
2022-10-19T04:39:27.853Z,12.29
2022-10-19T04:41:56.209Z,12.36
2022-10-19T04:46:57.824Z,12.47
2022-10-19T04:49:26.166Z,12.46
2022-10-19T04:51:54.506Z,12.47
2022-10-19T04:54:22.876Z,12.57
2022-10-19T04:56:51.309Z,12.65
2022-10-19T04:59:19.783Z,12.64
2022-10-19T05:01:48.114Z,12.62
2022-10-19T05:04:16.460Z,12.58
2022-10-19T05:06:44.835Z,12.51
2022-10-19T05:09:13.296Z,12.51
2022-10-19T05:11:41.689Z,12.69
2022-10-19T05:14:10.262Z,12.54
2022-10-19T05:16:38.626Z,12.51
2022-10-19T05:19:07.092Z,12.55
2022-10-19T05:21:35.392Z,12.56
2022-10-19T05:24:03.965Z,12.62
2022-10-19T05:26:32.430Z,12.62
2022-10-19T05:29:04.690Z,12.53
2022-10-19T05:31:34.447Z,12.47
2022-10-19T05:34:04.085Z,12.39
2022-10-19T05:36:35.424Z,12.43
2022-10-19T05:39:15.691Z,12.42
2022-10-19T05:41:45.067Z,12.47
2022-10-19T05:44:16.539Z,12.37
2022-10-19T05:46:45.136Z,12.46
2022-10-19T05:49:14.707Z,12.44
2022-10-19T05:51:43.736Z,12.45
2022-10-19T05:54:13.304Z,12.50
2022-10-19T05:56:42.428Z,12.37
2022-10-19T05:59:15.688Z,12.42
2022-10-19T06:01:45.041Z,12.41
2022-10-19T06:04:14.998Z,12.34
2022-10-19T06:06:43.636Z,12.39
2022-10-19T06:09:12.271Z,12.41
2022-10-19T06:11:42.229Z,12.31
2022-10-19T06:14:15.384Z,12.36
2022-10-19T06:16:45.766Z,12.46
2022-10-19T06:19:14.284Z,12.41
2022-10-19T06:21:45.831Z,12.41
2022-10-19T06:24:14.736Z,12.52
2022-10-19T06:26:43.140Z,12.51
2022-10-19T06:29:11.569Z,12.49
2022-10-19T06:31:39.954Z,12.48
2022-10-19T06:34:09.654Z,12.44
2022-10-19T06:36:38.425Z,12.27
2022-10-19T06:39:06.876Z,12.19
2022-10-19T06:41:35.337Z,11.96
2022-10-19T06:44:05.762Z,12.02
2022-10-19T06:46:34.319Z,12.01
2022-10-19T06:49:03.155Z,11.88
2022-10-19T06:51:34.946Z,12.02
2022-10-19T06:54:03.447Z,12.08
2022-10-19T06:56:32.074Z,12.14
2022-10-19T06:59:00.556Z,12.20
2022-10-19T07:01:29.147Z,12.09
2022-10-19T07:03:57.589Z,12.09
2022-10-19T07:06:27.753Z,12.25
2022-10-19T07:08:56.157Z,12.24
2022-10-19T07:11:24.561Z,12.38
2022-10-19T07:13:53.333Z,12.45
2022-10-19T07:16:22.636Z,12.54
2022-10-19T07:18:52.589Z,12.58
2022-10-19T07:21:22.768Z,12.68
2022-10-19T07:23:52.278Z,12.59
2022-10-19T07:26:27.478Z,12.63
2022-10-19T07:28:57.505Z,12.73
2022-10-19T07:31:29.346Z,12.83
2022-10-19T07:34:00.106Z,12.91
2022-10-19T07:36:30.578Z,12.87
2022-10-19T07:39:00.543Z,12.72
2022-10-19T07:41:28.935Z,12.81
2022-10-19T07:43:58.029Z,12.99
2022-10-19T07:46:33.311Z,13.13
2022-10-19T07:49:01.913Z,12.88
2022-10-19T07:51:30.715Z,12.92
2022-10-19T07:53:59.468Z,13.11
2022-10-19T07:56:28.680Z,13.05
2022-10-19T07:58:59.620Z,13.31
2022-10-19T08:01:38.103Z,13.45
2022-10-19T08:04:49.040Z,13.39
2022-10-19T08:06:55.716Z,13.34
2022-10-19T08:09:50.765Z,13.48
2022-10-19T08:12:15.343Z,13.37
2022-10-19T08:14:44.070Z,13.56
2022-10-19T08:17:16.504Z,13.45
2022-10-19T08:19:45.875Z,13.57
2022-10-19T08:22:14.260Z,13.80
2022-10-19T08:24:42.944Z,13.84
2022-10-19T08:27:12.371Z,13.73
2022-10-19T08:29:40.816Z,13.71
2022-10-19T08:32:09.287Z,13.94
2022-10-19T08:34:37.870Z,13.95
2022-10-19T08:37:14.756Z,14.23
2022-10-19T08:39:54.563Z,13.93
2022-10-19T08:42:41.377Z,13.74
2022-10-19T08:45:44.859Z,14.02
2022-10-19T08:48:24.216Z,13.71
2022-10-19T08:50:53.140Z,14.16
2022-10-19T08:53:30.500Z,14.36
2022-10-19T08:56:51.357Z,14.33
2022-10-19T08:59:42.205Z,14.74
2022-10-19T09:02:18.318Z,14.78
2022-10-19T09:05:14.221Z,14.80
2022-10-19T09:07:45.792Z,14.84
2022-10-19T09:10:14.694Z,14.80
2022-10-19T09:13:04.211Z,14.75
2022-10-19T09:15:44.381Z,14.87
2022-10-19T09:18:28.304Z,15.28
2022-10-19T09:21:47.063Z,15.49
2022-10-19T09:24:29.732Z,15.20
2022-10-19T09:27:01.851Z,15.46
2022-10-19T09:29:31.205Z,15.66
2022-10-19T09:32:01.541Z,15.81
2022-10-19T09:34:34.622Z,15.98
2022-10-19T09:37:03.642Z,15.68
2022-10-19T09:39:32.522Z,15.67
2022-10-19T09:42:13.172Z,15.91
2022-10-19T09:44:41.827Z,15.87
2022-10-19T09:47:33.511Z,15.67
2022-10-19T09:50:09.175Z,15.76
2022-10-19T09:52:39.797Z,15.62
2022-10-19T09:55:14.017Z,15.58
2022-10-19T09:57:44.266Z,15.52
2022-10-19T10:00:37.788Z,15.68
2022-10-19T10:03:07.557Z,15.39
2022-10-19T10:05:41.178Z,15.45
2022-10-19T10:08:15.772Z,15.59
2022-10-19T10:10:54.156Z,16.10
2022-10-19T10:13:25.602Z,16.09
2022-10-19T10:16:00.361Z,16.22
2022-10-19T10:18:29.780Z,16.06
2022-10-19T10:21:00.384Z,16.10
2022-10-19T10:23:36.174Z,16.23
2022-10-19T10:26:15.226Z,16.28
2022-10-19T10:28:49.245Z,16.25
2022-10-19T10:31:29.961Z,16.57
2022-10-19T10:34:12.314Z,16.31
2022-10-19T10:36:53.917Z,16.45
2022-10-19T10:39:24.722Z,16.44
2022-10-19T10:41:53.685Z,16.22
2022-10-19T10:44:30.677Z,16.50
2022-10-19T10:47:01.096Z,16.78
2022-10-19T10:49:36.805Z,16.80
2022-10-19T10:52:15.550Z,16.96
2022-10-19T10:55:02.349Z,16.87
2022-10-19T10:57:37.541Z,16.98
2022-10-19T11:00:16.728Z,16.93
2022-10-19T11:02:58.962Z,16.88
2022-10-19T11:05:39.034Z,17.14
2022-10-19T11:08:19.990Z,17.34
2022-10-19T11:11:13.945Z,17.44
2022-10-19T11:13:56.680Z,17.51
2022-10-19T11:16:31.304Z,17.60
2022-10-19T11:19:16.598Z,17.12
2022-10-19T11:22:33.243Z,17.30
2022-10-19T11:25:25.032Z,17.45
2022-10-19T11:28:22.149Z,17.52
2022-10-19T11:31:13.706Z,17.75
2022-10-19T11:33:48.786Z,17.80
2022-10-19T11:36:35.302Z,17.88
2022-10-19T11:39:25.721Z,17.52
2022-10-19T11:42:19.296Z,17.76
2022-10-19T11:44:56.799Z,17.09
2022-10-19T11:48:01.610Z,17.24
2022-10-19T11:50:54.065Z,17.47
2022-10-19T11:53:45.720Z,17.07
2022-10-19T11:56:39.183Z,17.51
2022-10-19T11:59:22.278Z,17.03
2022-10-19T12:02:19.200Z,17.40
2022-10-19T12:05:11.203Z,17.67
2022-10-19T12:08:09.772Z,17.61
2022-10-19T12:10:43.324Z,17.71
2022-10-19T12:13:44.377Z,18.05
2022-10-19T12:16:14.392Z,17.85
2022-10-19T12:18:50.644Z,18.09
2022-10-19T12:21:31.538Z,18.17
2022-10-19T12:24:04.744Z,18.23
2022-10-19T12:26:36.549Z,18.29
2022-10-19T12:29:29.496Z,18.29
2022-10-19T12:32:00.882Z,18.18
2022-10-19T12:34:32.554Z,18.16
2022-10-19T12:37:12.658Z,18.18
2022-10-19T12:40:05.624Z,18.14
2022-10-19T12:42:58.155Z,18.10
2022-10-19T12:45:34.788Z,18.01
2022-10-19T12:48:10.991Z,18.14
2022-10-19T12:51:01.303Z,18.01
2022-10-19T12:53:39.064Z,17.81
2022-10-19T12:56:46.559Z,18.18
2022-10-19T12:59:33.019Z,18.24
2022-10-19T13:02:18.692Z,18.34
2022-10-19T13:04:56.863Z,18.14
2022-10-19T13:07:27.364Z,18.33
2022-10-19T13:10:02.365Z,18.08
2022-10-19T13:12:44.149Z,18.25
2022-10-19T13:15:37.604Z,18.10
2022-10-19T13:18:14.094Z,18.15
2022-10-19T13:20:52.704Z,18.23
2022-10-19T13:23:27.258Z,18.17
2022-10-19T13:26:45.134Z,18.49
2022-10-19T13:29:27.721Z,18.65
2022-10-19T13:32:51.623Z,18.27
2022-10-19T13:35:33.385Z,18.06
2022-10-19T13:38:21.071Z,17.91
2022-10-19T13:40:49.394Z,18.27
2022-10-19T13:43:25.783Z,17.95
2022-10-19T13:46:12.238Z,18.23
2022-10-19T13:49:05.036Z,18.21
2022-10-19T13:51:55.381Z,18.30
2022-10-19T13:54:42.970Z,18.14
2022-10-19T13:57:34.656Z,18.33
2022-10-19T14:00:14.297Z,18.00
2022-10-19T14:03:20.515Z,18.22
2022-10-19T14:06:03.963Z,18.30
2022-10-19T14:08:55.800Z,18.30
2022-10-19T14:11:44.293Z,18.34
2022-10-19T14:14:24.346Z,18.49
2022-10-19T14:17:01.456Z,18.51
2022-10-19T14:19:42.680Z,18.36
2022-10-19T14:22:33.979Z,18.54
2022-10-19T14:25:21.216Z,18.46
2022-10-19T14:28:13.913Z,18.65
2022-10-19T14:30:42.956Z,18.53
2022-10-19T14:33:17.820Z,18.61
2022-10-19T14:35:49.923Z,18.69
2022-10-19T14:38:20.464Z,18.63
2022-10-19T14:40:49.100Z,18.50
2022-10-19T14:43:24.701Z,18.35
2022-10-19T14:46:08.499Z,18.45
2022-10-19T14:48:45.539Z,18.33
2022-10-19T14:51:13.892Z,18.44
2022-10-19T14:54:12.574Z,18.55
2022-10-19T14:56:46.184Z,18.74
2022-10-19T14:59:37.164Z,18.54
2022-10-19T15:02:34.812Z,18.28
2022-10-19T15:05:05.849Z,18.03
2022-10-19T15:07:38.879Z,18.11
2022-10-19T15:10:26.201Z,18.35
2022-10-19T15:13:02.293Z,18.09
2022-10-19T15:15:33.666Z,18.23
2022-10-19T15:18:02.305Z,18.02
2022-10-19T15:20:39.638Z,18.14
2022-10-19T15:23:36.773Z,18.25
2022-10-19T15:26:24.128Z,18.19
2022-10-19T15:28:54.908Z,18.07
2022-10-19T15:31:28.952Z,18.14
2022-10-19T15:33:59.508Z,17.98
2022-10-19T15:36:30.687Z,18.22
2022-10-19T15:39:18.269Z,18.07
2022-10-19T15:41:53.734Z,17.81
2022-10-19T15:44:39.961Z,17.90
2022-10-19T15:47:20.218Z,17.88
2022-10-19T15:49:53.237Z,17.89
2022-10-19T15:52:24.953Z,17.92
2022-10-19T15:54:56.013Z,17.98
2022-10-19T15:57:32.007Z,17.95
2022-10-19T16:00:13.007Z,17.89
2022-10-19T16:02:41.577Z,17.59
2022-10-19T16:05:10.941Z,17.55
2022-10-19T16:07:40.807Z,17.51
2022-10-19T16:10:17.472Z,17.44
2022-10-19T16:12:46.470Z,17.33
2022-10-19T16:15:22.111Z,17.24
2022-10-19T16:17:57.347Z,17.18
2022-10-19T16:20:28.283Z,17.18
2022-10-19T16:22:57.492Z,17.41
2022-10-19T16:25:26.178Z,17.41
2022-10-19T16:27:54.835Z,17.36
2022-10-19T16:30:23.260Z,17.26
2022-10-19T16:32:52.747Z,17.24
2022-10-19T16:35:21.290Z,17.09
2022-10-19T16:37:49.828Z,16.99
2022-10-19T16:40:18.123Z,17.09
2022-10-19T16:42:46.802Z,17.19
2022-10-19T16:45:15.407Z,17.00
2022-10-19T16:47:44.035Z,16.65
2022-10-19T16:50:12.422Z,16.92
2022-10-19T16:52:40.861Z,16.81
2022-10-19T16:55:09.690Z,16.73
2022-10-19T16:57:38.285Z,16.78
2022-10-19T17:00:09.409Z,16.88
2022-10-19T17:02:41.841Z,16.84
2022-10-19T17:05:12.859Z,16.86
2022-10-19T17:07:41.242Z,16.63
2022-10-19T17:10:10.112Z,16.46
2022-10-19T17:12:41.702Z,16.54
2022-10-19T17:15:40.886Z,16.58
2022-10-19T17:17:59.495Z,16.55
2022-10-19T17:20:27.981Z,16.57
2022-10-19T17:22:56.464Z,16.40
2022-10-19T17:25:25.021Z,16.35
2022-10-19T17:27:53.557Z,16.13
2022-10-19T17:30:22.109Z,16.23
2022-10-19T17:32:50.652Z,16.30
2022-10-19T17:35:19.039Z,16.12
2022-10-19T17:37:47.540Z,16.17
2022-10-19T17:40:16.036Z,16.22
2022-10-19T17:42:45.852Z,16.35
2022-10-19T17:45:14.364Z,16.22
2022-10-19T17:47:43.048Z,16.15
2022-10-19T17:50:11.560Z,16.08
2022-10-19T17:52:40.011Z,15.99
2022-10-19T17:55:13.365Z,16.11
2022-10-19T17:57:42.073Z,16.06
2022-10-19T18:00:11.520Z,16.23
2022-10-19T18:02:40.618Z,15.99
2022-10-19T18:05:09.480Z,15.99
2022-10-19T18:07:38.266Z,15.74
2022-10-19T18:10:06.986Z,15.90
2022-10-19T18:12:35.586Z,15.96
2022-10-19T18:15:04.366Z,15.77
2022-10-19T18:17:32.874Z,15.68
2022-10-19T18:20:01.485Z,15.78
2022-10-19T18:22:29.945Z,15.68
2022-10-19T18:24:58.406Z,15.71
2022-10-19T18:27:26.978Z,15.54
2022-10-19T18:29:55.490Z,15.76
2022-10-19T18:32:23.977Z,15.98
2022-10-19T18:34:52.400Z,15.97
2022-10-19T18:37:21.185Z,15.69
2022-10-19T18:39:49.715Z,15.77
2022-10-19T18:42:18.795Z,15.71
2022-10-19T18:44:47.474Z,15.67
2022-10-19T18:47:16.056Z,15.85
2022-10-19T18:49:44.852Z,15.82
2022-10-19T18:52:13.907Z,15.63
2022-10-19T18:54:42.488Z,15.60
2022-10-19T18:57:11.339Z,15.62
2022-10-19T18:59:40.031Z,15.62
2022-10-19T19:02:17.155Z,15.61
2022-10-19T19:04:58.849Z,15.59
2022-10-19T19:07:27.280Z,15.58
2022-10-19T19:09:56.093Z,15.47
2022-10-19T19:12:24.646Z,15.45
2022-10-19T19:14:53.016Z,15.37
2022-10-19T19:17:21.463Z,15.31
2022-10-19T19:19:49.912Z,15.38
2022-10-19T19:22:18.844Z,15.41
2022-10-19T19:24:49.609Z,15.43
2022-10-19T19:27:18.300Z,15.24
2022-10-19T19:29:46.733Z,15.28
2022-10-19T19:32:16.145Z,15.32
2022-10-19T19:34:44.547Z,15.02
2022-10-19T19:37:13.456Z,15.10
2022-10-19T19:39:42.659Z,15.04
2022-10-19T19:42:16.381Z,14.99
2022-10-19T19:44:44.749Z,14.98
2022-10-19T19:47:13.122Z,15.09
2022-10-19T19:49:41.520Z,14.85
2022-10-19T19:52:09.854Z,14.97
2022-10-19T19:54:38.355Z,14.98
2022-10-19T19:57:07.797Z,14.92
2022-10-19T19:59:36.164Z,14.99
2022-10-19T20:02:06.335Z,14.78
2022-10-19T20:04:34.850Z,14.52
2022-10-19T20:07:03.448Z,14.72
2022-10-19T20:09:32.170Z,14.71
2022-10-19T20:12:00.604Z,14.75
2022-10-19T20:14:29.040Z,14.70
2022-10-19T20:16:57.388Z,14.72
2022-10-19T20:19:25.870Z,14.60
2022-10-19T20:21:56.324Z,14.59
2022-10-19T20:24:28.248Z,14.62
2022-10-19T20:26:57.082Z,14.46
2022-10-19T20:29:25.473Z,14.66
2022-10-19T20:31:53.920Z,14.59
2022-10-19T20:34:24.043Z,14.51
2022-10-19T20:36:52.565Z,14.53
2022-10-19T20:39:20.982Z,14.56
2022-10-19T20:41:49.408Z,14.63
2022-10-19T20:44:17.887Z,14.70
2022-10-19T20:46:48.975Z,14.61
2022-10-19T20:49:17.561Z,14.64
2022-10-19T20:51:47.877Z,14.71
2022-10-19T20:54:16.655Z,14.59
2022-10-19T20:56:45.045Z,14.63
2022-10-19T20:59:19.844Z,14.45
2022-10-19T21:01:53.413Z,14.50
2022-10-19T21:04:22.687Z,14.39
2022-10-19T21:06:52.056Z,14.67
2022-10-19T21:09:23.348Z,14.72
2022-10-19T21:11:52.187Z,14.66
2022-10-19T21:14:31.306Z,14.63
2022-10-19T21:17:00.539Z,14.78
2022-10-19T21:19:32.877Z,14.80
2022-10-19T21:22:02.466Z,14.71
2022-10-19T21:24:33.966Z,14.66
2022-10-19T21:27:05.061Z,14.54
2022-10-19T21:29:34.067Z,14.64
2022-10-19T21:32:02.863Z,14.66
2022-10-19T21:34:35.304Z,14.60
2022-10-19T21:37:04.003Z,14.72
2022-10-19T21:39:32.669Z,14.72
2022-10-19T21:42:01.145Z,14.73
2022-10-19T21:44:29.519Z,14.70
2022-10-19T21:46:59.063Z,14.62
2022-10-19T21:49:27.385Z,14.38
2022-10-19T21:51:55.789Z,14.27
2022-10-19T21:54:25.858Z,14.39
2022-10-19T21:56:55.829Z,14.50
2022-10-19T21:59:24.753Z,14.67
2022-10-19T22:01:55.196Z,14.44
2022-10-19T22:04:23.810Z,14.57
2022-10-19T22:06:53.178Z,14.60
2022-10-19T22:09:22.617Z,14.60
2022-10-19T22:11:50.996Z,14.60
2022-10-19T22:14:20.893Z,14.56
2022-10-19T22:16:50.298Z,14.47
2022-10-19T22:19:18.628Z,14.53
2022-10-19T22:21:47.042Z,14.57
2022-10-19T22:24:15.497Z,14.57
2022-10-19T22:26:50.538Z,14.74
2022-10-19T22:29:18.989Z,14.91
2022-10-19T22:31:47.371Z,14.90
2022-10-19T22:34:16.952Z,14.76
2022-10-19T22:36:45.635Z,14.75
2022-10-19T22:39:14.778Z,14.82
2022-10-19T22:42:29.424Z,15.02
2022-10-19T22:44:57.762Z,14.83
2022-10-19T22:47:26.121Z,14.70
2022-10-19T22:49:54.594Z,14.53
2022-10-19T22:52:22.960Z,14.35
2022-10-19T22:54:51.492Z,14.36
2022-10-19T22:57:19.868Z,14.63
2022-10-19T22:59:48.239Z,14.68
2022-10-19T23:02:16.646Z,14.76
2022-10-19T23:04:45.153Z,14.68
2022-10-19T23:07:13.654Z,14.66
2022-10-19T23:09:42.148Z,14.70
2022-10-19T23:12:10.509Z,14.81
2022-10-19T23:14:38.842Z,14.74
2022-10-19T23:17:07.187Z,14.81
2022-10-19T23:19:35.541Z,14.77
2022-10-19T23:22:03.979Z,14.90
2022-10-19T23:24:32.352Z,14.88
2022-10-19T23:27:00.781Z,14.91
2022-10-19T23:29:29.167Z,15.02
2022-10-19T23:31:57.497Z,14.78
2022-10-19T23:34:25.879Z,14.86
2022-10-19T23:36:54.437Z,14.88
2022-10-19T23:39:23.007Z,14.93
2022-10-19T23:41:51.411Z,14.90
2022-10-19T23:44:19.771Z,14.93
2022-10-19T23:46:48.131Z,14.99
2022-10-19T23:49:16.470Z,15.06
2022-10-19T23:51:44.873Z,15.01
2022-10-19T23:54:13.215Z,15.06
2022-10-19T23:56:41.586Z,15.06
2022-10-19T23:59:09.922Z,15.01
